createdAt,value
2022-11-17T00:00:27.696Z,9.82
2022-11-17T00:02:54.236Z,11.65
2022-11-17T00:05:21.163Z,9.48
2022-11-17T00:07:48.997Z,8.27
2022-11-17T00:10:17.205Z,11.15
2022-11-17T00:13:02.630Z,9.18
2022-11-17T00:15:29.191Z,11.00
2022-11-17T00:18:15.680Z,6.25
2022-11-17T00:21:00.704Z,10.68
2022-11-17T00:23:46.574Z,11.45
2022-11-17T00:26:21.296Z,9.18
2022-11-17T00:28:51.586Z,8.18
2022-11-17T00:31:36.771Z,6.10
2022-11-17T00:34:06.439Z,8.40
2022-11-17T00:36:34.807Z,12.00
2022-11-17T00:39:01.584Z,12.32
2022-11-17T00:41:28.789Z,10.68
2022-11-17T00:43:55.387Z,10.80
2022-11-17T00:46:22.011Z,8.70
2022-11-17T00:48:48.530Z,9.30
2022-11-17T00:51:15.049Z,10.32
2022-11-17T00:53:41.506Z,8.25
2022-11-17T00:56:07.906Z,8.75
2022-11-17T00:58:35.484Z,8.30
2022-11-17T01:01:02.755Z,13.43
2022-11-17T01:03:29.303Z,9.52
2022-11-17T01:05:55.757Z,8.65
2022-11-17T01:08:22.184Z,11.13
2022-11-17T01:10:48.685Z,10.20
2022-11-17T01:13:17.973Z,9.65
2022-11-17T01:15:44.375Z,8.80
2022-11-17T01:18:11.126Z,7.45
2022-11-17T01:20:37.696Z,9.05
2022-11-17T01:23:04.111Z,5.55
2022-11-17T01:25:31.184Z,8.80
2022-11-17T01:27:57.663Z,6.03
2022-11-17T01:30:24.129Z,6.47
2022-11-17T01:32:50.552Z,6.60
2022-11-17T01:35:17.094Z,7.88
2022-11-17T01:37:43.508Z,8.57
2022-11-17T01:40:13.420Z,8.10
2022-11-17T01:42:39.992Z,6.47
2022-11-17T01:45:22.020Z,10.90
2022-11-17T01:48:01.929Z,8.73
2022-11-17T01:50:37.319Z,6.40
2022-11-17T01:55:42.523Z,4.72
2022-11-17T01:58:13.860Z,8.32
2022-11-17T02:00:40.491Z,4.85
2022-11-17T02:03:07.441Z,7.00
2022-11-17T02:05:54.173Z,8.27
2022-11-17T02:08:23.580Z,7.57
2022-11-17T02:10:52.118Z,4.78
2022-11-17T02:13:20.511Z,7.25
2022-11-17T02:15:47.133Z,6.53
2022-11-17T02:18:15.280Z,7.93
2022-11-17T02:20:51.874Z,7.63
2022-11-17T02:23:24.405Z,7.78
2022-11-17T02:26:15.326Z,7.20
2022-11-17T02:29:00.259Z,8.45
2022-11-17T02:32:01.868Z,7.77
2022-11-17T02:34:35.530Z,6.53
2022-11-17T02:37:25.901Z,8.25
2022-11-17T02:39:55.920Z,6.85
2022-11-17T02:42:47.718Z,5.70
2022-11-17T02:45:21.361Z,7.20
2022-11-17T02:47:53.910Z,11.95
2022-11-17T02:50:28.075Z,6.70
2022-11-17T02:52:55.668Z,10.00
2022-11-17T02:55:22.084Z,5.97
2022-11-17T02:57:49.663Z,5.10
2022-11-17T03:00:18.204Z,6.97
2022-11-17T03:03:03.147Z,4.10
2022-11-17T03:05:47.902Z,3.80
2022-11-17T03:08:36.382Z,5.30
2022-11-17T03:11:05.282Z,3.83
2022-11-17T03:13:43.807Z,6.30
2022-11-17T03:16:37.226Z,6.95
2022-11-17T03:19:06.403Z,5.50
2022-11-17T03:21:58.227Z,4.05
2022-11-17T03:24:31.342Z,3.22
2022-11-17T03:27:05.854Z,9.18
2022-11-17T03:29:35.755Z,5.93
2022-11-17T03:32:06.321Z,6.75
2022-11-17T03:34:39.193Z,5.20
2022-11-17T03:37:08.790Z,3.53
2022-11-17T03:39:40.000Z,8.38
2022-11-17T03:42:38.900Z,3.80
2022-11-17T03:45:18.081Z,5.18
2022-11-17T03:47:45.514Z,3.20
2022-11-17T03:50:17.268Z,5.03
2022-11-17T03:52:44.850Z,4.65
2022-11-17T03:55:12.368Z,5.88
2022-11-17T03:57:49.635Z,3.55
2022-11-17T04:00:18.687Z,6.30
2022-11-17T04:02:47.852Z,5.43
2022-11-17T04:05:17.386Z,1.38
2022-11-17T04:07:45.852Z,2.30
2022-11-17T04:10:14.535Z,1.48
2022-11-17T04:13:00.646Z,4.97
2022-11-17T04:15:46.486Z,2.78
2022-11-17T04:18:13.701Z,3.60
2022-11-17T04:20:40.241Z,3.72
2022-11-17T04:23:09.211Z,5.90
2022-11-17T04:26:09.301Z,5.13
2022-11-17T04:28:39.620Z,5.22
2022-11-17T04:31:16.051Z,3.30
2022-11-17T04:33:48.109Z,4.55
2022-11-17T04:36:17.483Z,3.08
2022-11-17T04:38:46.546Z,1.63
2022-11-17T04:41:33.499Z,3.15
2022-11-17T04:44:01.276Z,4.53
2022-11-17T04:46:29.456Z,4.30
2022-11-17T04:48:57.014Z,2.00
2022-11-17T04:51:25.095Z,1.83
2022-11-17T04:53:51.884Z,4.15
2022-11-17T04:56:19.394Z,4.10
2022-11-17T04:58:46.059Z,2.60
2022-11-17T05:01:12.626Z,2.95
2022-11-17T05:03:51.024Z,3.00
2022-11-17T05:06:29.132Z,2.10
2022-11-17T05:08:56.485Z,4.45
2022-11-17T05:11:44.094Z,6.70
2022-11-17T05:14:11.967Z,6.15
2022-11-17T05:16:57.714Z,4.30
2022-11-17T05:21:51.964Z,4.90
2022-11-17T05:24:18.705Z,6.90
2022-11-17T05:26:46.682Z,2.40
2022-11-17T05:29:15.481Z,2.47
2022-11-17T05:31:42.429Z,4.32
2022-11-17T05:34:12.316Z,3.80
2022-11-17T05:36:39.455Z,4.40
2022-11-17T05:39:06.261Z,4.82
2022-11-17T05:41:32.886Z,4.28
2022-11-17T05:43:59.340Z,7.10
2022-11-17T05:46:26.156Z,6.70
2022-11-17T05:48:53.301Z,5.43
2022-11-17T05:51:22.075Z,3.40
2022-11-17T05:53:49.205Z,3.88
2022-11-17T05:56:42.217Z,5.13
2022-11-17T05:59:17.400Z,7.05
2022-11-17T06:01:52.516Z,4.00
2022-11-17T06:04:20.490Z,4.63
2022-11-17T06:06:48.343Z,7.13
2022-11-17T06:09:15.574Z,5.68
2022-11-17T06:11:42.061Z,9.15
2022-11-17T06:14:08.540Z,7.57
2022-11-17T06:16:41.509Z,7.03
2022-11-17T06:19:13.799Z,8.02
2022-11-17T06:22:09.832Z,5.35
2022-11-17T06:24:27.252Z,6.53
2022-11-17T06:26:53.756Z,7.88
2022-11-17T06:29:20.309Z,4.05
2022-11-17T06:31:47.194Z,5.97
2022-11-17T06:34:13.719Z,6.53
2022-11-17T06:36:40.167Z,10.40
2022-11-17T06:39:06.659Z,7.68
2022-11-17T06:41:33.102Z,7.53
2022-11-17T06:43:59.646Z,11.95
2022-11-17T06:46:37.725Z,6.38
2022-11-17T06:49:06.473Z,6.38
2022-11-17T06:51:38.938Z,9.40
2022-11-17T06:54:09.736Z,6.80
2022-11-17T06:56:36.350Z,7.60
2022-11-17T06:59:02.866Z,13.80
2022-11-17T07:01:29.375Z,10.57
2022-11-17T07:03:55.833Z,7.05
2022-11-17T07:06:22.372Z,6.68
2022-11-17T07:08:48.952Z,5.85
2022-11-17T07:11:16.612Z,11.00
2022-11-17T07:13:43.457Z,5.78
2022-11-17T07:16:21.815Z,8.57
2022-11-17T07:18:50.308Z,4.50
2022-11-17T07:21:17.911Z,8.20
2022-11-17T07:23:45.699Z,7.28
2022-11-17T07:26:12.696Z,3.95
2022-11-17T07:28:39.345Z,6.80
2022-11-17T07:31:08.048Z,10.93
2022-11-17T07:33:35.269Z,10.05
2022-11-17T07:36:10.054Z,5.85
2022-11-17T07:38:38.560Z,8.15
2022-11-17T07:41:06.821Z,12.68
2022-11-17T07:43:34.467Z,3.03
2022-11-17T07:46:10.408Z,5.97
2022-11-17T07:48:37.295Z,8.43
2022-11-17T07:51:05.406Z,9.70
2022-11-17T07:53:33.335Z,6.97
2022-11-17T07:56:08.117Z,8.27
2022-11-17T07:58:35.133Z,3.40
2022-11-17T08:01:10.114Z,3.97
2022-11-17T08:03:36.826Z,5.07
2022-11-17T08:06:07.306Z,1.17
2022-11-17T08:08:34.749Z,2.35
2022-11-17T08:11:06.777Z,3.08
2022-11-17T08:13:33.956Z,2.35
2022-11-17T08:16:00.799Z,7.82
2022-11-17T08:18:28.779Z,2.67
2022-11-17T08:21:06.378Z,3.00
2022-11-17T08:23:34.216Z,7.25
2022-11-17T08:26:02.361Z,1.92
2022-11-17T08:28:28.935Z,5.05
2022-11-17T08:30:56.005Z,4.85
2022-11-17T08:33:22.734Z,5.00
2022-11-17T08:35:49.274Z,2.10
2022-11-17T08:38:15.795Z,5.47
2022-11-17T08:40:42.540Z,3.90
2022-11-17T08:43:09.119Z,6.43
2022-11-17T08:45:35.647Z,1.52
2022-11-17T08:48:02.161Z,6.07
2022-11-17T08:50:28.739Z,3.30
2022-11-17T08:52:55.228Z,3.92
2022-11-17T08:55:21.823Z,2.40
2022-11-17T08:57:48.433Z,5.88
2022-11-17T09:00:16.317Z,2.95
2022-11-17T09:02:42.857Z,4.80
2022-11-17T09:05:09.494Z,1.65
2022-11-17T09:07:35.979Z,2.72
2022-11-17T09:10:04.482Z,4.55
2022-11-17T09:12:31.358Z,5.32
2022-11-17T09:14:57.861Z,4.47
2022-11-17T09:17:24.373Z,3.00
2022-11-17T09:19:50.821Z,9.23
2022-11-17T09:22:17.335Z,0.77
2022-11-17T09:24:43.793Z,8.50
2022-11-17T09:27:10.239Z,3.70
2022-11-17T09:29:36.656Z,4.15
2022-11-17T09:32:03.142Z,2.83
2022-11-17T09:34:29.712Z,1.67
2022-11-17T09:36:56.506Z,4.68
2022-11-17T09:39:23.053Z,4.85
2022-11-17T09:41:51.853Z,4.57
2022-11-17T09:44:24.498Z,4.97
2022-11-17T09:47:08.062Z,2.25
2022-11-17T09:49:58.300Z,5.10
2022-11-17T09:52:50.856Z,1.45
2022-11-17T09:55:34.223Z,5.88
2022-11-17T09:58:11.192Z,10.82
2022-11-17T10:00:40.851Z,3.17
2022-11-17T10:03:18.231Z,3.97
2022-11-17T10:05:45.083Z,6.15
2022-11-17T10:08:18.425Z,6.68
2022-11-17T10:10:52.136Z,9.95
2022-11-17T10:13:31.977Z,5.95
2022-11-17T10:16:05.680Z,9.05
2022-11-17T10:18:38.066Z,4.22
2022-11-17T10:21:06.724Z,3.00
2022-11-17T10:23:47.129Z,5.63
2022-11-17T10:26:15.604Z,9.77
2022-11-17T10:28:42.170Z,2.47
2022-11-17T10:31:17.082Z,3.92
2022-11-17T10:33:46.064Z,4.65
2022-11-17T10:36:32.694Z,4.03
2022-11-17T10:39:00.667Z,1.52
2022-11-17T10:41:30.516Z,5.82
2022-11-17T10:43:59.827Z,7.25
2022-11-17T10:46:29.923Z,4.32
2022-11-17T10:49:05.017Z,6.95
2022-11-17T10:51:33.440Z,2.55
2022-11-17T10:54:19.758Z,1.13
2022-11-17T10:56:55.890Z,6.70
2022-11-17T10:59:33.357Z,1.58
2022-11-17T11:02:25.524Z,3.08
2022-11-17T11:05:09.298Z,2.97
2022-11-17T11:07:36.520Z,3.50
2022-11-17T11:10:14.332Z,4.28
2022-11-17T11:13:08.861Z,2.42
2022-11-17T11:15:36.521Z,5.95
2022-11-17T11:18:13.161Z,1.55
2022-11-17T11:20:47.164Z,0.65
2022-11-17T11:23:39.493Z,3.38
2022-11-17T11:26:33.006Z,2.22
2022-11-17T11:29:22.168Z,3.20
2022-11-17T11:32:05.422Z,1.35
2022-11-17T11:34:50.456Z,2.92
2022-11-17T11:37:17.086Z,2.78
2022-11-17T11:40:26.879Z,5.63
2022-11-17T11:43:04.986Z,1.80
2022-11-17T11:45:53.439Z,4.18
2022-11-17T11:48:27.035Z,3.80
2022-11-17T11:51:11.049Z,5.30
2022-11-17T11:53:49.269Z,6.97
2022-11-17T11:56:21.129Z,5.80
2022-11-17T11:59:07.798Z,2.78
2022-11-17T12:01:44.884Z,1.15
2022-11-17T12:04:33.694Z,3.83
2022-11-17T12:07:14.109Z,1.15
2022-11-17T12:10:04.110Z,2.22
2022-11-17T12:12:33.918Z,0.75
2022-11-17T12:15:18.763Z,3.28
2022-11-17T12:18:06.074Z,4.57
2022-11-17T12:20:38.659Z,4.05
2022-11-17T12:23:24.016Z,0.88
2022-11-17T12:26:00.592Z,6.57
2022-11-17T12:28:39.027Z,4.88
2022-11-17T12:31:32.746Z,4.45
2022-11-17T12:33:59.158Z,2.92
2022-11-17T12:36:32.798Z,2.08
2022-11-17T12:39:01.209Z,1.58
2022-11-17T12:41:49.796Z,1.70
2022-11-17T12:44:38.368Z,1.80
2022-11-17T12:47:14.167Z,4.00
2022-11-17T12:50:05.580Z,5.40
2022-11-17T12:52:37.735Z,4.38
2022-11-17T12:55:37.040Z,5.18
2022-11-17T12:58:11.176Z,4.88
2022-11-17T13:00:48.971Z,9.10
2022-11-17T13:03:17.511Z,3.65
2022-11-17T13:05:43.991Z,10.32
2022-11-17T13:08:23.025Z,6.95
2022-11-17T13:10:50.871Z,5.88
2022-11-17T13:13:22.231Z,3.53
2022-11-17T13:15:53.412Z,7.88
2022-11-17T13:18:22.541Z,0.40
2022-11-17T13:20:49.506Z,0.80
2022-11-17T13:23:25.801Z,1.52
2022-11-17T13:26:09.345Z,0.40
2022-11-17T13:28:36.111Z,0.45
2022-11-17T13:31:02.914Z,2.47
2022-11-17T13:33:30.493Z,2.70
2022-11-17T13:36:07.375Z,6.72
2022-11-17T13:38:33.852Z,4.28
2022-11-17T13:41:01.883Z,2.05
2022-11-17T13:43:36.375Z,8.80
2022-11-17T13:46:06.185Z,1.20
2022-11-17T13:48:43.472Z,8.85
2022-11-17T13:51:22.702Z,0.60
2022-11-17T13:54:11.372Z,7.05
2022-11-17T13:56:42.495Z,5.45
2022-11-17T13:59:18.186Z,4.18
2022-11-17T14:01:45.051Z,3.67
2022-11-17T14:04:21.527Z,9.35
2022-11-17T14:06:52.092Z,5.28
2022-11-17T14:09:18.769Z,2.92
2022-11-17T14:11:45.456Z,3.92
2022-11-17T14:14:14.051Z,4.78
2022-11-17T14:16:41.682Z,6.40
2022-11-17T14:19:17.242Z,15.45
2022-11-17T14:22:08.404Z,4.38
2022-11-17T14:24:35.315Z,6.65
2022-11-17T14:27:01.928Z,4.82
2022-11-17T14:29:29.458Z,5.35
2022-11-17T14:31:56.910Z,6.75
2022-11-17T14:34:23.893Z,7.13
2022-11-17T14:36:54.459Z,6.65
2022-11-17T14:39:21.241Z,9.85
2022-11-17T14:41:49.923Z,7.00
2022-11-17T14:44:17.219Z,9.43
2022-11-17T14:46:43.918Z,8.82
2022-11-17T14:49:10.543Z,9.82
2022-11-17T14:51:37.013Z,8.85
2022-11-17T14:54:03.916Z,9.18
2022-11-17T14:56:30.501Z,7.57
2022-11-17T14:59:00.461Z,5.57
2022-11-17T15:01:31.082Z,11.18
2022-11-17T15:04:04.134Z,8.38
2022-11-17T15:06:37.653Z,6.63
2022-11-17T15:09:05.859Z,9.00
2022-11-17T15:11:38.185Z,9.48
2022-11-17T15:14:06.268Z,8.70
2022-11-17T15:16:33.558Z,11.00
2022-11-17T15:19:00.117Z,8.20
2022-11-17T15:21:26.615Z,13.27
2022-11-17T15:23:53.068Z,11.82
2022-11-17T15:26:23.290Z,10.32
2022-11-17T15:28:49.776Z,7.68
2022-11-17T15:31:18.739Z,6.50
2022-11-17T15:33:46.445Z,8.10
2022-11-17T15:36:18.620Z,8.32
2022-11-17T15:38:45.300Z,6.88
2022-11-17T15:41:12.976Z,8.10
2022-11-17T15:43:40.934Z,7.60
2022-11-17T15:46:12.918Z,3.65
2022-11-17T15:48:42.931Z,12.25
2022-11-17T15:51:14.845Z,8.05
2022-11-17T15:53:43.973Z,11.60
2022-11-17T15:56:17.324Z,6.68
2022-11-17T15:58:45.026Z,10.57
2022-11-17T16:01:16.727Z,8.13
2022-11-17T16:03:45.311Z,7.68
2022-11-17T16:06:12.667Z,12.10
2022-11-17T16:08:39.471Z,7.22
2022-11-17T16:11:06.733Z,9.38
2022-11-17T16:13:33.610Z,8.02
2022-11-17T16:16:00.145Z,9.05
2022-11-17T16:18:27.212Z,5.85
2022-11-17T16:20:53.871Z,11.52
2022-11-17T16:23:20.452Z,6.95
2022-11-17T16:25:48.276Z,11.07
2022-11-17T16:28:16.833Z,13.48
2022-11-17T16:30:43.460Z,8.40
2022-11-17T16:33:14.702Z,8.02
2022-11-17T16:35:41.429Z,5.75
2022-11-17T16:38:16.287Z,4.38
2022-11-17T16:40:43.615Z,7.75
2022-11-17T16:43:12.217Z,11.38
2022-11-17T16:45:43.862Z,36.88
2022-11-17T16:48:12.155Z,11.57
2022-11-17T16:50:40.338Z,13.38
2022-11-17T16:53:06.819Z,12.93
2022-11-17T16:55:37.681Z,7.13
2022-11-17T16:58:06.014Z,11.75
2022-11-17T17:00:34.742Z,20.88
2022-11-17T17:03:02.179Z,8.20
2022-11-17T17:05:31.721Z,7.47
2022-11-17T17:07:58.201Z,10.93
2022-11-17T17:10:24.766Z,6.53
2022-11-17T17:12:51.299Z,8.57
2022-11-17T17:15:17.875Z,9.48
2022-11-17T17:17:44.317Z,10.20
2022-11-17T17:20:13.723Z,12.10
2022-11-17T17:22:40.357Z,12.48
2022-11-17T17:25:07.798Z,10.60
2022-11-17T17:27:34.259Z,10.60
2022-11-17T17:30:00.734Z,11.48
2022-11-17T17:32:27.192Z,8.13
2022-11-17T17:34:53.721Z,13.80
2022-11-17T17:37:20.195Z,8.25
2022-11-17T17:39:46.697Z,9.70
2022-11-17T17:42:13.555Z,13.13
2022-11-17T17:44:39.976Z,10.10
2022-11-17T17:47:06.623Z,8.63
2022-11-17T17:49:33.081Z,11.82
2022-11-17T17:51:59.521Z,7.97
2022-11-17T17:54:26.088Z,12.45
2022-11-17T17:56:52.883Z,13.77
2022-11-17T17:59:19.906Z,10.55
2022-11-17T18:01:47.733Z,11.77
2022-11-17T18:04:16.200Z,16.45
2022-11-17T18:06:47.010Z,13.85
2022-11-17T18:09:15.470Z,12.82
2022-11-17T18:11:46.038Z,14.50
2022-11-17T18:14:13.259Z,13.38
2022-11-17T18:16:40.381Z,15.57
2022-11-17T18:19:08.461Z,14.93
2022-11-17T18:21:35.366Z,8.38
2022-11-17T18:24:03.193Z,9.35
2022-11-17T18:26:32.447Z,16.48
2022-11-17T18:29:00.180Z,11.93
2022-11-17T18:31:29.882Z,11.18
2022-11-17T18:34:02.281Z,9.25
2022-11-17T18:36:29.454Z,11.50
2022-11-17T18:38:58.351Z,12.70
2022-11-17T18:41:26.099Z,12.48
2022-11-17T18:43:52.658Z,11.60
2022-11-17T18:46:21.628Z,11.45
2022-11-17T18:48:51.511Z,11.00
2022-11-17T18:51:21.146Z,15.82
2022-11-17T18:53:48.891Z,13.95
2022-11-17T18:56:19.846Z,11.70
2022-11-17T18:58:47.087Z,11.18
2022-11-17T19:01:18.323Z,13.57
2022-11-17T19:03:48.591Z,9.98
2022-11-17T19:06:16.670Z,10.43
2022-11-17T19:08:44.256Z,12.75
2022-11-17T19:11:12.204Z,10.32
2022-11-17T19:13:40.604Z,7.50
2022-11-17T19:16:12.340Z,9.27
2022-11-17T19:18:39.445Z,8.85
2022-11-17T19:21:14.220Z,7.32
2022-11-17T19:23:43.480Z,8.45
2022-11-17T19:26:14.819Z,11.20
2022-11-17T19:28:42.075Z,7.68
2022-11-17T19:31:11.274Z,9.98
2022-11-17T19:33:40.039Z,11.48
2022-11-17T19:36:09.689Z,9.82
2022-11-17T19:38:38.568Z,6.80
2022-11-17T19:41:10.419Z,7.22
2022-11-17T19:43:43.455Z,9.02
2022-11-17T19:46:14.030Z,12.50
2022-11-17T19:48:41.149Z,9.77
2022-11-17T19:51:16.687Z,8.25
2022-11-17T19:53:43.418Z,11.52
2022-11-17T19:56:09.937Z,10.93
2022-11-17T19:58:36.403Z,10.38
2022-11-17T20:01:12.057Z,11.30
2022-11-17T20:03:39.650Z,12.95
2022-11-17T20:06:07.087Z,7.20
2022-11-17T20:08:33.560Z,12.57
2022-11-17T20:11:20.769Z,8.90
2022-11-17T20:13:47.699Z,6.25
2022-11-17T20:16:19.862Z,9.63
2022-11-17T20:18:49.912Z,10.00
2022-11-17T20:21:16.413Z,10.82
2022-11-17T20:23:43.629Z,10.02
2022-11-17T20:26:15.342Z,10.13
2022-11-17T20:28:42.200Z,7.38
2022-11-17T20:31:16.408Z,11.02
2022-11-17T20:33:43.836Z,9.82
2022-11-17T20:36:16.725Z,8.23
2022-11-17T20:38:43.471Z,10.75
2022-11-17T20:41:10.366Z,8.35
2022-11-17T20:43:37.343Z,15.52
2022-11-17T20:46:04.347Z,6.63
2022-11-17T20:48:33.893Z,10.57
2022-11-17T20:51:00.327Z,11.60
2022-11-17T20:53:28.398Z,10.25
2022-11-17T20:55:56.486Z,11.70
2022-11-17T20:58:24.053Z,12.93
2022-11-17T21:00:50.651Z,10.73
2022-11-17T21:03:17.639Z,10.15
2022-11-17T21:05:44.181Z,13.00
2022-11-17T21:08:10.675Z,13.82
2022-11-17T21:10:37.141Z,10.45
2022-11-17T21:13:03.669Z,11.80
2022-11-17T21:15:30.127Z,12.32
2022-11-17T21:18:15.079Z,12.95
2022-11-17T21:20:41.536Z,18.73
2022-11-17T21:23:07.940Z,16.92
2022-11-17T21:25:36.241Z,16.98
2022-11-17T21:28:03.085Z,14.18
2022-11-17T21:30:29.604Z,11.77
2022-11-17T21:32:56.085Z,10.70
2022-11-17T21:35:22.573Z,12.88
2022-11-17T21:37:48.988Z,11.65
2022-11-17T21:40:16.003Z,11.43
2022-11-17T21:42:42.487Z,10.65
2022-11-17T21:45:09.530Z,11.48
2022-11-17T21:47:36.017Z,11.82
2022-11-17T21:50:02.573Z,12.65
2022-11-17T21:52:29.054Z,12.82
2022-11-17T21:54:55.551Z,9.82
2022-11-17T21:57:22.003Z,8.15
2022-11-17T21:59:48.496Z,10.88
2022-11-17T22:02:14.956Z,12.27
2022-11-17T22:04:41.384Z,11.75
2022-11-17T22:07:07.894Z,13.52
2022-11-17T22:09:35.794Z,16.45
2022-11-17T22:12:02.747Z,18.70
2022-11-17T22:14:29.226Z,17.92
2022-11-17T22:16:56.437Z,21.63
2022-11-17T22:19:26.454Z,19.52
2022-11-17T22:21:53.820Z,19.98
2022-11-17T22:24:21.402Z,19.23
2022-11-17T22:26:48.158Z,11.65
2022-11-17T22:29:20.401Z,12.25
2022-11-17T22:31:48.555Z,13.85
2022-11-17T22:34:15.768Z,8.23
2022-11-17T22:36:42.484Z,10.63
2022-11-17T22:39:09.395Z,15.30
2022-11-17T22:41:36.108Z,11.93
2022-11-17T22:44:02.599Z,10.02
2022-11-17T22:46:29.440Z,14.18
2022-11-17T22:48:56.369Z,10.48
2022-11-17T22:51:43.569Z,11.05
2022-11-17T22:54:10.217Z,11.98
2022-11-17T22:56:36.800Z,10.85
2022-11-17T22:59:03.499Z,13.57
2022-11-17T23:01:29.992Z,10.15
2022-11-17T23:03:56.649Z,15.73
2022-11-17T23:06:24.151Z,11.43
2022-11-17T23:08:50.663Z,9.85
2022-11-17T23:14:07.543Z,11.25
2022-11-17T23:16:33.997Z,10.13
2022-11-17T23:19:00.470Z,8.73
2022-11-17T23:21:27.040Z,9.60
2022-11-17T23:23:53.632Z,8.80
2022-11-17T23:26:20.594Z,10.23
2022-11-17T23:28:47.118Z,8.05
2022-11-17T23:31:15.684Z,10.25
2022-11-17T23:33:44.823Z,10.60
2022-11-17T23:36:20.216Z,11.52
2022-11-17T23:38:47.805Z,10.38
2022-11-17T23:41:16.067Z,18.05
2022-11-17T23:43:42.929Z,12.13
2022-11-17T23:46:17.441Z,13.65
2022-11-17T23:48:44.896Z,12.17
2022-11-17T23:51:14.061Z,12.15
2022-11-17T23:53:40.906Z,10.73
2022-11-17T23:56:08.853Z,8.85
2022-11-17T23:58:35.973Z,9.65
